Time;durP1;ratioP1;P1;durP2;ratioP2;P2;SDS_P1;SDS_P2;PMS_P1;PMS_P2;Temp;Humidity;BMP_temperature;BMP_pressure;BME280_temperature;BME280_humidity;BME280_pressure;Samples;Min_cycle;Max_cycle;Signal;HPM_P1;HPM_P2
2024/02/25 00:00:50;;;;;;;;;;;;;;;20.93;32.81;99789.13;4134465;28;19945;-59
2024/02/25 00:02:52;;;;;;;;;;;;;;;20.82;32.98;99776.78;4134625;28;19926;-59
2024/02/25 00:04:54;;;;;;;;;;;;;;;20.92;33.12;99780.25;4134841;28;19989;-59
2024/02/25 00:06:56;;;;;;;;;;;;;;;20.92;32.82;99774.91;4117520;28;20315;-59
2024/02/25 00:08:57;;;;;;;;;;;;;;;20.92;32.93;99785.59;4134513;28;19929;-59
2024/02/25 00:10:59;;;;;;;;;;;;;;;20.91;33.08;99791.91;4134597;28;19932;-59
2024/02/25 00:13:00;;;;;;;;;;;;;;;20.90;33.02;99791.09;4134824;28;19949;-60
2024/02/25 00:15:02;;;;;;;;;;;;;;;20.90;33.17;99785.75;4134214;28;19926;-60
2024/02/25 00:17:04;;;;;;;;;;;;;;;20.89;33.12;99786.72;4134449;28;19926;-60
2024/02/25 00:19:05;;;;;;;;;;;;;;;20.89;33.13;99780.56;4134260;28;19925;-59
2024/02/25 00:21:07;;;;;;;;;;;;;;;20.90;33.10;99785.75;4134363;28;19930;-59
2024/02/25 00:23:09;;;;;;;;;;;;;;;20.92;33.23;99798.13;4134289;28;20391;-58
2024/02/25 00:25:10;;;;;;;;;;;;;;;20.93;33.16;99791.78;4117296;28;19926;-59
2024/02/25 00:27:12;;;;;;;;;;;;;;;20.93;33.03;99789.13;4134459;28;20295;-60
2024/02/25 00:29:15;;;;;;;;;;;;;;;20.95;33.11;99789.81;4134278;28;19976;-60
2024/02/25 00:31:17;;;;;;;;;;;;;;;20.94;32.94;99797.00;4134061;28;20395;-63
2024/02/25 00:33:19;;;;;;;;;;;;;;;20.94;32.88;99794.31;4134550;28;19973;-60
2024/02/25 00:35:20;;;;;;;;;;;;;;;20.93;33.23;99797.97;4134254;28;19930;-61
2024/02/25 00:37:22;;;;;;;;;;;;;;;20.94;33.16;99799.66;4134306;28;20425;-59
2024/02/25 00:39:23;;;;;;;;;;;;;;;20.93;32.90;99797.97;4133986;28;19933;-59
2024/02/25 00:41:25;;;;;;;;;;;;;;;20.94;32.81;99801.50;4134003;28;19964;-60
2024/02/25 00:43:29;;;;;;;;;;;;;;;20.92;32.87;99795.44;4134028;28;19925;-59
2024/02/25 00:45:30;;;;;;;;;;;;;;;20.90;33.02;99804.44;4133817;28;20276;-59
2024/02/25 00:47:32;;;;;;;;;;;;;;;20.92;33.10;99798.13;4133922;28;19981;-60
2024/02/25 00:49:34;;;;;;;;;;;;;;;20.92;33.17;99804.31;4116746;28;19926;-59
2024/02/25 00:51:36;;;;;;;;;;;;;;;20.93;33.20;99806.00;4134137;28;20039;-60
2024/02/25 00:53:37;;;;;;;;;;;;;;;20.94;33.07;99805.00;4134232;28;20028;-59
2024/02/25 00:55:39;;;;;;;;;;;;;;;20.94;33.15;99807.69;4134101;28;19981;-60
2024/02/25 00:57:40;;;;;;;;;;;;;;;20.95;32.94;99812.03;4133998;28;20031;-60
2024/02/25 00:59:42;;;;;;;;;;;;;;;20.95;33.29;99812.03;4133560;28;19988;-60
2024/02/25 01:01:46;;;;;;;;;;;;;;;20.95;32.74;99800.50;4133977;28;19933;-60
2024/02/25 01:03:47;;;;;;;;;;;;;;;20.95;33.04;99804.03;4133692;28;19960;-60
2024/02/25 01:05:49;;;;;;;;;;;;;;;20.96;32.74;99804.84;4134107;28;19980;-59
2024/02/25 01:07:51;;;;;;;;;;;;;;;20.95;32.71;99800.50;4133589;28;19972;-59
2024/02/25 01:09:52;;;;;;;;;;;;;;;20.93;32.89;99797.16;4133710;28;19930;-60
2024/02/25 01:11:54;;;;;;;;;;;;;;;20.93;33.07;99797.16;4133941;28;19929;-59
2024/02/25 01:13:56;;;;;;;;;;;;;;;20.93;32.98;99802.50;4133345;28;19926;-60
2024/02/25 01:16:02;;;;;;;;;;;;;;;20.93;32.81;99797.16;4133922;28;19980;-59
2024/02/25 01:18:05;;;;;;;;;;;;;;;20.95;32.79;99797.81;4133707;28;19926;-59
2024/02/25 01:20:08;;;;;;;;;;;;;;;20.95;33.06;99790.66;4133448;28;20040;-60
2024/02/25 01:22:10;;;;;;;;;;;;;;;20.95;33.08;99793.34;4133733;28;19961;-59
2024/02/25 01:24:12;;;;;;;;;;;;;;;20.95;33.11;99790.66;4133930;28;20013;-59
2024/02/25 01:26:13;;;;;;;;;;;;;;;20.95;33.06;99800.50;4133679;28;19933;-60
2024/02/25 01:28:15;;;;;;;;;;;;;;;20.95;33.09;99789.81;4133002;28;20511;-59
2024/02/25 01:30:17;;;;;;;;;;;;;;;20.95;33.08;99790.66;4133637;28;19926;-63
2024/02/25 01:32:18;;;;;;;;;;;;;;;20.94;33.15;99786.28;4133200;28;19940;-59
2024/02/25 01:34:25;;;;;;;;;;;;;;;20.94;33.01;99786.28;4133332;28;19930;-59
2024/02/25 01:36:26;;;;;;;;;;;;;;;20.93;33.13;99778.44;4133136;28;20008;-60
2024/02/25 01:38:28;;;;;;;;;;;;;;;20.93;33.08;99786.44;4133466;28;20367;-59
2024/02/25 01:40:30;;;;;;;;;;;;;;;20.92;33.16;99777.56;4133394;28;19972;-59
2024/02/25 01:42:31;;;;;;;;;;;;;;;20.94;32.87;99777.44;4133003;28;20370;-59
2024/02/25 01:44:34;;;;;;;;;;;;;;;20.94;33.17;99778.28;4133223;28;19930;-60
2024/02/25 01:46:35;;;;;;;;;;;;;;;20.95;33.05;99774.63;4133328;28;19926;-59
2024/02/25 01:48:37;;;;;;;;;;;;;;;20.96;33.10;99773.63;4133562;28;19926;-59
2024/02/25 01:50:39;;;;;;;;;;;;;;;20.96;32.85;99770.09;4133317;28;19937;-59
2024/02/25 01:52:41;;;;;;;;;;;;;;;20.97;33.06;99769.13;4133273;28;20375;-60
2024/02/25 01:54:43;;;;;;;;;;;;;;;20.97;33.00;99777.16;4133090;28;19980;-59
2024/02/25 01:56:44;;;;;;;;;;;;;;;20.96;33.09;99767.44;4132821;28;19932;-59
2024/02/25 01:58:46;;;;;;;;;;;;;;;20.96;32.92;99768.28;4116088;28;19926;-59
2024/02/25 02:00:51;;;;;;;;;;;;;;;20.97;32.95;99766.44;4133124;28;19926;-59
2024/02/25 02:02:52;;;;;;;;;;;;;;;20.96;32.99;99772.78;4133000;28;19951;-58
2024/02/25 02:04:54;;;;;;;;;;;;;;;20.94;32.81;99764.91;4133132;28;19988;-58
2024/02/25 02:06:57;;;;;;;;;;;;;;;20.94;32.84;99775.59;4132860;28;20391;-59
2024/02/25 02:08:59;;;;;;;;;;;;;;;20.94;33.07;99772.94;4132620;28;19930;-58
2024/02/25 02:11:13;;;;;;;;;;;;;;;20.96;32.75;99762.09;4132522;28;19980;-59
2024/02/25 02:13:18;;;;;;;;;;;;;;;20.96;32.78;99772.78;4115650;28;19932;-58
2024/02/25 02:15:20;;;;;;;;;;;;;;;20.97;32.92;99766.44;4132814;28;19926;-59
2024/02/25 02:17:22;;;;;;;;;;;;;;;20.98;32.99;99760.94;4132908;28;19926;-59
2024/02/25 02:19:23;;;;;;;;;;;;;;;20.98;32.93;99760.94;4132382;28;19932;-59
2024/02/25 02:21:25;;;;;;;;;;;;;;;20.97;33.20;99756.59;4132320;28;19933;-59
2024/02/25 02:23:27;;;;;;;;;;;;;;;20.98;32.97;99752.09;4132916;28;20344;-59
2024/02/25 02:25:28;;;;;;;;;;;;;;;20.98;33.16;99755.59;4132397;28;19929;-58
2024/02/25 02:27:30;;;;;;;;;;;;;;;20.96;32.66;99754.94;4132521;28;19926;-58
2024/02/25 02:29:31;;;;;;;;;;;;;;;20.96;32.91;99756.75;4132546;28;19965;-58
2024/02/25 02:31:33;;;;;;;;;;;;;;;20.96;33.03;99751.41;4132664;28;19926;-58
2024/02/25 02:33:38;;;;;;;;;;;;;;;20.96;32.68;99748.72;4132533;28;19972;-58
2024/02/25 02:35:41;;;;;;;;;;;;;;;20.96;33.04;99743.38;4132623;28;20008;-59
2024/02/25 02:37:42;;;;;;;;;;;;;;;20.97;33.00;99745.91;4132477;28;19972;-59
2024/02/25 02:39:44;;;;;;;;;;;;;;;20.97;32.84;99743.22;4132448;28;19940;-59
2024/02/25 02:41:45;;;;;;;;;;;;;;;20.98;32.77;99747.59;4131930;28;19926;-58
2024/02/25 02:43:47;;;;;;;;;;;;;;;20.99;32.84;99745.78;4132326;28;20457;-58
2024/02/25 02:45:50;;;;;;;;;;;;;;;20.99;33.08;99746.59;4132252;28;20240;-58
2024/02/25 02:47:52;;;;;;;;;;;;;;;20.99;32.70;99746.59;4132459;28;19930;-58
2024/02/25 02:49:54;;;;;;;;;;;;;;;21.00;32.73;99742.94;4132075;28;20454;-58
2024/02/25 02:51:59;;;;;;;;;;;;;;;21.00;33.02;99736.78;4115070;28;19989;-58
2024/02/25 02:54:02;;;;;;;;;;;;;;;20.98;33.01;99741.41;4115054;28;20307;-58
2024/02/25 02:56:04;;;;;;;;;;;;;;;20.97;32.66;99739.72;4131837;28;19936;-58
2024/02/25 02:58:06;;;;;;;;;;;;;;;20.96;32.68;99728.19;4132228;28;19926;-58
2024/02/25 03:00:08;;;;;;;;;;;;;;;20.96;32.70;99730.88;4132134;28;19926;-59
2024/02/25 03:02:10;;;;;;;;;;;;;;;20.97;33.11;99734.38;4132167;28;20323;-58
2024/02/25 03:04:12;;;;;;;;;;;;;;;20.97;33.06;99732.53;4132060;28;19985;-59
2024/02/25 03:06:14;;;;;;;;;;;;;;;20.97;32.70;99732.53;4132081;28;19932;-58
2024/02/25 03:08:15;;;;;;;;;;;;;;;20.98;33.11;99728.88;4132085;28;19926;-58
2024/02/25 03:10:17;;;;;;;;;;;;;;;20.99;33.03;99724.38;4131480;28;19926;-58
2024/02/25 03:12:19;;;;;;;;;;;;;;;20.99;32.98;99733.22;4131954;28;19936;-59
2024/02/25 03:14:21;;;;;;;;;;;;;;;21.00;32.71;99736.78;4132042;28;19926;-59
2024/02/25 03:16:22;;;;;;;;;;;;;;;20.98;32.88;99736.88;4131821;28;19932;-58
2024/02/25 03:18:24;;;;;;;;;;;;;;;20.99;33.01;99730.56;4132155;28;20430;-59
2024/02/25 03:20:26;;;;;;;;;;;;;;;20.98;32.96;99734.22;4131864;28;19926;-58
2024/02/25 03:22:27;;;;;;;;;;;;;;;20.98;33.03;99736.06;4131907;28;19926;-59
2024/02/25 03:24:29;;;;;;;;;;;;;;;20.97;33.11;99726.34;4131445;28;20028;-58
2024/02/25 03:26:31;;;;;;;;;;;;;;;20.97;32.96;99732.53;4131897;28;19926;-58
2024/02/25 03:28:32;;;;;;;;;;;;;;;20.97;32.86;99729.03;4131610;28;20044;-58
2024/02/25 03:30:34;;;;;;;;;;;;;;;20.98;32.79;99726.19;4131891;28;19925;-58
2024/02/25 03:32:36;;;;;;;;;;;;;;;20.97;33.02;99729.84;4131191;28;20025;-58
2024/02/25 03:34:39;;;;;;;;;;;;;;;20.99;32.70;99722.53;4131542;28;19926;-58
2024/02/25 03:36:41;;;;;;;;;;;;;;;20.99;32.60;99733.22;4131522;28;20285;-58
2024/02/25 03:38:42;;;;;;;;;;;;;;;21.00;32.83;99728.75;4131083;28;19933;-58
2024/02/25 03:40:44;;;;;;;;;;;;;;;20.99;32.92;99735.09;4131527;28;19926;-57
2024/02/25 03:42:46;;;;;;;;;;;;;;;21.00;32.82;99723.41;4131629;28;19933;-57
2024/02/25 03:44:48;;;;;;;;;;;;;;;20.99;32.98;99730.56;4131583;28;19965;-58
2024/02/25 03:46:50;;;;;;;;;;;;;;;20.99;32.78;99724.38;4131428;28;20315;-59
2024/02/25 03:48:51;;;;;;;;;;;;;;;20.98;33.09;99712.84;4131585;28;19926;-58
2024/02/25 03:50:53;;;;;;;;;;;;;;;20.98;32.97;99709.34;4131548;28;19926;-59
2024/02/25 03:52:55;;;;;;;;;;;;;;;20.96;32.78;99717.50;4131271;28;19933;-58
2024/02/25 03:54:56;;;;;;;;;;;;;;;20.96;32.96;99722.00;4114505;28;19966;-58
2024/02/25 03:56:58;;;;;;;;;;;;;;;20.95;32.63;99728.31;4131841;28;19957;-59
2024/02/25 03:59:00;;;;;;;;;;;;;;;20.97;32.95;99718.34;4131437;28;20017;-59
2024/02/25 04:01:01;;;;;;;;;;;;;;;20.98;32.77;99723.53;4131756;28;19974;-58
2024/02/25 04:03:03;;;;;;;;;;;;;;;20.99;32.98;99719.88;4131601;28;19949;-58
2024/02/25 04:05:05;;;;;;;;;;;;;;;20.99;32.94;99716.38;4131583;28;19930;-58
2024/02/25 04:07:07;;;;;;;;;;;;;;;20.98;32.78;99723.53;4131054;28;19926;-57
2024/02/25 04:09:09;;;;;;;;;;;;;;;20.98;32.64;99718.19;4114222;28;20303;-58
2024/02/25 04:11:10;;;;;;;;;;;;;;;20.99;32.66;99725.22;4131392;28;19926;-58
2024/02/25 04:13:12;;;;;;;;;;;;;;;21.00;32.60;99726.06;4131469;28;19926;-58
2024/02/25 04:15:13;;;;;;;;;;;;;;;20.99;32.80;99719.03;4131590;28;19930;-58
2024/02/25 04:17:15;;;;;;;;;;;;;;;20.97;32.71;99715.66;4131418;28;19972;-58
2024/02/25 04:19:17;;;;;;;;;;;;;;;20.96;32.59;99716.66;4114065;28;19961;-58
2024/02/25 04:21:19;;;;;;;;;;;;;;;20.95;32.90;99715.81;4131053;28;19926;-59
2024/02/25 04:23:21;;;;;;;;;;;;;;;20.96;32.77;99714.84;4131212;28;20295;-58
2024/02/25 04:25:22;;;;;;;;;;;;;;;20.96;32.81;99717.50;4131469;28;19932;-58
2024/02/25 04:27:24;;;;;;;;;;;;;;;20.97;33.06;99716.50;4131513;28;19981;-59
2024/02/25 04:29:25;;;;;;;;;;;;;;;20.98;32.59;99726.19;4131311;28;20016;-58
2024/02/25 04:31:28;;;;;;;;;;;;;;;20.98;32.77;99720.03;4114397;28;19926;-60
2024/02/25 04:33:30;;;;;;;;;;;;;;;20.98;32.74;99712.00;4114017;28;19933;-59
2024/02/25 04:35:32;;;;;;;;;;;;;;;20.99;32.78;99724.38;4131246;28;19957;-59
2024/02/25 04:37:33;;;;;;;;;;;;;;;20.99;32.75;99730.56;4131154;28;20453;-59
2024/02/25 04:39:36;;;;;;;;;;;;;;;20.98;32.55;99726.19;4131297;28;19926;-59
2024/02/25 04:41:38;;;;;;;;;;;;;;;20.98;32.54;99728.03;4131292;28;19930;-59
2024/02/25 04:43:40;;;;;;;;;;;;;;;20.97;32.74;99735.19;4132356;28;19930;-60
2024/02/25 04:45:41;;;;;;;;;;;;;;;20.96;32.97;99727.34;4134150;28;19977;-59
2024/02/25 04:47:43;;;;;;;;;;;;;;;20.96;32.67;99732.69;4134354;28;19933;-59
2024/02/25 04:49:46;;;;;;;;;;;;;;;20.95;32.54;99739.88;4133998;28;19965;-59
2024/02/25 04:51:49;;;;;;;;;;;;;;;20.96;32.87;99741.56;4133841;28;19928;-60
2024/02/25 04:53:56;;;;;;;;;;;;;;;20.97;32.65;99740.56;4134166;28;19930;-59
2024/02/25 04:56:01;;;;;;;;;;;;;;;20.98;32.89;99736.06;4134245;28;19926;-59
2024/02/25 04:58:07;;;;;;;;;;;;;;;20.98;32.93;99736.88;4133840;28;19925;-59
2024/02/25 05:00:09;;;;;;;;;;;;;;;20.99;32.76;99732.41;4134120;28;19930;-60
2024/02/25 05:02:11;;;;;;;;;;;;;;;21.00;32.75;99734.94;4134169;28;19926;-58
2024/02/25 05:04:13;;;;;;;;;;;;;;;21.00;32.58;99731.44;4134119;28;19980;-59
2024/02/25 05:06:15;;;;;;;;;;;;;;;21.00;32.58;99728.75;4133483;28;19925;-59
2024/02/25 05:08:16;;;;;;;;;;;;;;;20.97;32.77;99727.19;4133922;28;19953;-58
2024/02/25 05:10:20;;;;;;;;;;;;;;;20.98;32.77;99725.38;4133754;28;20012;-59
2024/02/25 05:12:22;;;;;;;;;;;;;;;20.96;32.74;99727.34;4133815;28;19925;-60
2024/02/25 05:14:23;;;;;;;;;;;;;;;20.95;32.65;99717.63;4133727;28;20403;-59
2024/02/25 05:16:25;;;;;;;;;;;;;;;20.94;32.78;99722.16;4133902;28;19925;-59
2024/02/25 05:18:28;;;;;;;;;;;;;;;20.94;32.58;99722.16;4133849;28;19926;-60
2024/02/25 05:20:30;;;;;;;;;;;;;;;20.95;32.53;99715.81;4133678;28;20025;-59
2024/02/25 05:22:32;;;;;;;;;;;;;;;20.96;32.71;99722.84;4133493;28;19933;-60
2024/02/25 05:24:35;;;;;;;;;;;;;;;20.97;32.95;99723.69;4133788;28;19930;-59
2024/02/25 05:26:37;;;;;;;;;;;;;;;20.99;32.53;99729.72;4133335;28;19948;-59
2024/02/25 05:28:39;;;;;;;;;;;;;;;20.98;32.67;99733.41;4116337;28;20012;-60
2024/02/25 05:30:40;;;;;;;;;;;;;;;20.98;32.47;99730.72;4133440;28;19930;-59
2024/02/25 05:32:43;;;;;;;;;;;;;;;20.98;32.53;99728.03;4133544;28;19965;-60
2024/02/25 05:34:45;;;;;;;;;;;;;;;20.98;32.42;99733.41;4133012;28;19933;-59
2024/02/25 05:36:47;;;;;;;;;;;;;;;20.96;32.71;99725.53;4133286;28;19933;-59
2024/02/25 05:38:51;;;;;;;;;;;;;;;20.95;32.72;99723.84;4133213;28;19926;-59
2024/02/25 05:40:53;;;;;;;;;;;;;;;20.94;32.79;99730.16;4133530;28;19948;-60
2024/02/25 05:42:55;;;;;;;;;;;;;;;20.94;32.38;99730.16;4133531;28;20299;-59
2024/02/25 05:45:00;;;;;;;;;;;;;;;20.95;32.71;99733.66;4133333;28;20000;-59
2024/02/25 05:47:01;;;;;;;;;;;;;;;20.95;32.46;99728.31;4133267;28;19926;-59
2024/02/25 05:49:03;;;;;;;;;;;;;;;20.95;32.81;99725.66;4133070;28;19926;-59
2024/02/25 05:51:06;;;;;;;;;;;;;;;20.97;32.45;99735.19;4116115;28;19951;-59
2024/02/25 05:53:10;;;;;;;;;;;;;;;20.97;32.75;99721.00;4133190;28;19957;-58
2024/02/25 05:55:12;;;;;;;;;;;;;;;20.97;32.68;99721.84;4133289;28;20425;-59
2024/02/25 05:57:14;;;;;;;;;;;;;;;20.99;32.57;99727.06;4133242;28;19958;-57
2024/02/25 05:59:15;;;;;;;;;;;;;;;20.97;32.54;99726.34;4133039;28;19932;-58
2024/02/25 06:01:17;;;;;;;;;;;;;;;20.96;32.80;99725.53;4133241;28;19926;-58
2024/02/25 06:03:21;;;;;;;;;;;;;;;20.96;32.61;99720.19;4132679;28;20413;-58
2024/02/25 06:05:23;;;;;;;;;;;;;;;20.96;32.52;99727.34;4133118;28;19926;-59
2024/02/25 06:07:25;;;;;;;;;;;;;;;20.96;32.62;99724.66;4132973;28;19926;-59
2024/02/25 06:09:26;;;;;;;;;;;;;;;20.95;32.56;99717.63;4132968;28;20306;-58
2024/02/25 06:11:28;;;;;;;;;;;;;;;20.95;32.65;99712.28;4133026;28;19979;-58
2024/02/25 06:13:29;;;;;;;;;;;;;;;20.94;32.88;99713.31;4115623;28;19926;-58
2024/02/25 06:15:31;;;;;;;;;;;;;;;20.95;32.79;99704.28;4132847;28;19936;-59
2024/02/25 06:17:33;;;;;;;;;;;;;;;20.96;32.80;99708.63;4099346;29;19933;-59
2024/02/25 06:19:35;;;;;;;;;;;;;;;20.97;32.78;99705.81;4115512;28;20006;-58
2024/02/25 06:21:44;;;;;;;;;;;;;;;20.98;32.76;99704.81;4132980;28;19926;-58
2024/02/25 06:23:46;;;;;;;;;;;;;;;21.00;32.88;99699.34;4132592;28;20020;-58
2024/02/25 06:25:47;;;;;;;;;;;;;;;20.99;32.86;99695.81;4132799;28;19926;-58
2024/02/25 06:27:49;;;;;;;;;;;;;;;20.99;32.75;99708.34;4132535;28;19926;-59
2024/02/25 06:29:50;;;;;;;;;;;;;;;20.99;32.65;99701.16;4132407;28;19926;-59
2024/02/25 06:31:52;;;;;;;;;;;;;;;20.98;32.90;99695.97;4132479;28;19926;-58
2024/02/25 06:33:53;;;;;;;;;;;;;;;20.98;32.82;99698.66;4132173;28;19933;-58
2024/02/25 06:35:55;;;;;;;;;;;;;;;20.96;32.72;99696.13;4132812;28;19936;-58
2024/02/25 06:37:58;;;;;;;;;;;;;;;20.96;32.61;99695.25;4132498;28;20359;-58
2024/02/25 06:40:01;;;;;;;;;;;;;;;20.96;32.68;99685.44;4124551;28;20387;-58
2024/02/25 06:42:02;;;;;;;;;;;;;;;20.98;32.71;99685.28;4132339;28;20303;-58
2024/02/25 06:44:04;;;;;;;;;;;;;;;20.99;32.84;99692.31;4132307;28;20025;-58
2024/02/25 06:46:06;;;;;;;;;;;;;;;20.99;32.95;99686.97;4132446;28;19972;-58
2024/02/25 06:48:07;;;;;;;;;;;;;;;21.00;32.85;99692.16;4132214;28;19925;-58
2024/02/25 06:50:09;;;;;;;;;;;;;;;21.01;32.58;99690.31;4132165;28;19925;-57
2024/02/25 06:52:11;;;;;;;;;;;;;;;21.00;32.77;99689.47;4132292;28;19984;-57
2024/02/25 06:54:12;;;;;;;;;;;;;;;21.00;32.88;99681.47;4132113;28;19972;-58
2024/02/25 06:56:15;;;;;;;;;;;;;;;21.02;32.79;99681.31;4132088;28;20430;-58
2024/02/25 06:58:16;;;;;;;;;;;;;;;21.00;33.02;99680.63;4115054;28;19933;-58
2024/02/25 07:00:18;;;;;;;;;;;;;;;21.00;33.01;99680.63;4114949;28;19953;-58
2024/02/25 07:02:20;;;;;;;;;;;;;;;20.98;32.91;99675.41;4131876;28;19932;-58
2024/02/25 07:04:21;;;;;;;;;;;;;;;20.97;33.02;99671.06;4132460;28;19953;-58
2024/02/25 07:06:23;;;;;;;;;;;;;;;20.99;33.14;99676.28;4131683;28;20300;-58
2024/02/25 07:08:25;;;;;;;;;;;;;;;21.00;32.94;99675.28;4132193;28;19925;-59
2024/02/25 07:10:26;;;;;;;;;;;;;;;21.01;32.85;99674.28;4131960;28;19926;-58
2024/02/25 07:12:28;;;;;;;;;;;;;;;21.02;32.91;99673.28;4114852;28;19944;-59
2024/02/25 07:14:29;;;;;;;;;;;;;;;21.03;33.02;99669.63;4132170;28;19926;-59
2024/02/25 07:16:31;;;;;;;;;;;;;;;21.03;33.03;99667.81;4131490;28;19936;-59
2024/02/25 07:18:33;;;;;;;;;;;;;;;21.03;33.01;99667.81;4114839;28;20308;-59
2024/02/25 07:20:34;;;;;;;;;;;;;;;21.03;33.06;99662.47;4131816;28;19933;-60
2024/02/25 07:22:36;;;;;;;;;;;;;;;21.02;33.09;99660.78;4131887;28;20371;-60
2024/02/25 07:24:39;;;;;;;;;;;;;;;21.01;33.16;99659.09;4131989;28;19926;-60
2024/02/25 07:26:41;;;;;;;;;;;;;;;21.01;33.31;99653.75;4131762;28;20291;-60
2024/02/25 07:28:43;;;;;;;;;;;;;;;21.00;33.03;99654.72;4132078;28;19933;-60
2024/02/25 07:30:44;;;;;;;;;;;;;;;21.00;33.14;99654.72;4131437;28;19932;-59
2024/02/25 07:32:46;;;;;;;;;;;;;;;20.99;33.07;99655.72;4131987;28;19926;-60
2024/02/25 07:34:48;;;;;;;;;;;;;;;20.99;32.95;99646.88;4131743;28;20387;-60
2024/02/25 07:36:50;;;;;;;;;;;;;;;21.02;32.90;99650.09;4131953;28;19926;-60
2024/02/25 07:38:52;;;;;;;;;;;;;;;21.02;33.32;99642.06;4131627;28;19930;-58
2024/02/25 07:40:53;;;;;;;;;;;;;;;21.04;33.17;99648.09;4131649;28;19929;-60
2024/02/25 07:42:55;;;;;;;;;;;;;;;21.06;32.92;99642.63;4131813;28;20398;-59
2024/02/25 07:44:57;;;;;;;;;;;;;;;21.05;32.99;99639.09;4114238;28;19926;-60
2024/02/25 07:46:58;;;;;;;;;;;;;;;21.06;32.99;99639.94;4131644;28;19925;-58
2024/02/25 07:49:01;;;;;;;;;;;;;;;21.05;32.99;99639.09;4114232;28;20049;-58
2024/02/25 07:51:06;;;;;;;;;;;;;;;21.03;32.97;99633.06;4131583;28;19926;-61
2024/02/25 07:53:08;;;;;;;;;;;;;;;21.04;33.18;99633.91;4131600;28;19925;-57
2024/02/25 07:55:09;;;;;;;;;;;;;;;21.03;33.11;99635.75;4131733;28;19973;-58
2024/02/25 07:57:11;;;;;;;;;;;;;;;21.03;33.19;99629.53;4131619;28;19926;-60
2024/02/25 07:59:13;;;;;;;;;;;;;;;21.03;33.13;99630.41;4131089;28;19941;-61
2024/02/25 08:01:14;;;;;;;;;;;;;;;21.04;33.06;99632.03;4131784;28;20306;-58
2024/02/25 08:03:17;;;;;;;;;;;;;;;21.04;33.12;99637.41;4131753;28;20335;-58
2024/02/25 08:05:19;;;;;;;;;;;;;;;21.06;33.34;99637.28;4131686;28;20311;-58
2024/02/25 08:07:20;;;;;;;;;;;;;;;21.08;33.24;99637.09;4131586;28;19926;-58
2024/02/25 08:09:22;;;;;;;;;;;;;;;21.08;33.27;99637.09;4131622;28;19937;-58
2024/02/25 08:11:24;;;;;;;;;;;;;;;21.08;33.26;99623.75;4131729;28;19972;-58
2024/02/25 08:13:25;;;;;;;;;;;;;;;21.07;33.04;99622.91;4131488;28;19926;-58
2024/02/25 08:15:27;;;;;;;;;;;;;;;21.08;33.25;99621.06;4131051;28;19949;-58
2024/02/25 08:17:28;;;;;;;;;;;;;;;21.08;33.14;99624.56;4131234;28;19971;-58
2024/02/25 08:19:30;;;;;;;;;;;;;;;21.07;33.35;99617.56;4133653;28;19926;-59
2024/02/25 08:21:32;;;;;;;;;;;;;;;21.08;33.17;99613.06;4134645;28;20491;-59
2024/02/25 08:23:33;;;;;;;;;;;;;;;21.06;33.17;99613.22;4134372;28;19926;-59
2024/02/25 08:25:35;;;;;;;;;;;;;;;21.04;33.09;99618.69;4134546;28;19980;-58
2024/02/25 08:27:37;;;;;;;;;;;;;;;21.05;33.37;99619.53;4134515;28;19926;-58
2024/02/25 08:29:43;;;;;;;;;;;;;;;21.06;33.45;99610.53;4134152;28;19932;-58
2024/02/25 08:31:47;;;;;;;;;;;;;;;21.09;33.43;99609.38;4134503;28;19988;-59
2024/02/25 08:33:48;;;;;;;;;;;;;;;21.10;33.24;99611.06;4134224;28;19926;-59
2024/02/25 08:35:50;;;;;;;;;;;;;;;21.09;33.29;99604.03;4134302;28;19926;-59
2024/02/25 08:37:52;;;;;;;;;;;;;;;21.11;33.16;99610.09;4134292;28;20359;-60
2024/02/25 08:39:53;;;;;;;;;;;;;;;;;;4133860;28;19930;-59
2024/02/25 08:41:55;;;;;;;;;;;;;;;21.12;33.23;99604.59;4134220;28;20315;-59
2024/02/25 08:44:00;;;;;;;;;;;;;;;21.01;33.31;99589.59;4134005;28;19926;-59
2024/02/25 08:46:02;;;;;;;;;;;;;;;21.13;33.37;99610.75;4134061;28;20032;-59
2024/02/25 08:48:03;;;;;;;;;;;;;;;21.12;33.02;99609.06;4134089;28;19926;-59
2024/02/25 08:50:05;;;;;;;;;;;;;;;21.11;33.16;99604.75;4116819;28;19926;-58
2024/02/25 08:52:07;;;;;;;;;;;;;;;21.09;33.11;99604.88;4134030;28;19925;-57
2024/02/25 08:54:08;;;;;;;;;;;;;;;21.08;33.61;99603.19;4134348;28;19926;-59
2024/02/25 08:56:10;;;;;;;;;;;;;;;21.09;33.43;99598.69;4133819;28;19932;-60
2024/02/25 08:58:12;;;;;;;;;;;;;;;21.12;33.60;99603.72;4133613;28;19929;-59
2024/02/25 09:00:13;;;;;;;;;;;;;;;21.13;33.21;99602.75;4133959;28;19929;-59
2024/02/25 09:02:15;;;;;;;;;;;;;;;21.14;33.49;99601.75;4134036;28;19926;-60
2024/02/25 09:04:17;;;;;;;;;;;;;;;21.14;33.39;99599.94;4133997;28;20391;-59
2024/02/25 09:06:18;;;;;;;;;;;;;;;21.14;33.28;99599.06;4133764;28;20029;-59
2024/02/25 09:08:22;;;;;;;;;;;;;;;21.14;33.42;99599.06;4133787;28;20017;-59
2024/02/25 09:10:24;;;;;;;;;;;;;;;21.15;33.53;99592.75;4133410;28;19926;-58
2024/02/25 09:12:26;;;;;;;;;;;;;;;21.14;33.43;99594.59;4133251;28;19925;-60
2024/02/25 09:14:28;;;;;;;;;;;;;;;21.15;33.27;99590.06;4133656;28;19925;-60
2024/02/25 09:16:30;;;;;;;;;;;;;;;21.14;33.17;99591.91;4133842;28;19996;-60
2024/02/25 09:18:32;;;;;;;;;;;;;;;21.12;33.42;99585.88;4133704;28;19982;-59
2024/02/25 09:20:34;;;;;;;;;;;;;;;21.12;33.49;99583.19;4133605;28;19930;-59
2024/02/25 09:22:35;;;;;;;;;;;;;;;21.12;33.52;99572.50;4133710;28;19936;-61
2024/02/25 09:24:37;;;;;;;;;;;;;;;21.13;33.46;99568.84;4133657;28;19926;-60
2024/02/25 09:26:40;;;;;;;;;;;;;;;21.14;33.42;99567.84;4133179;28;20020;-60
2024/02/25 09:28:43;;;;;;;;;;;;;;;21.16;33.46;99565.84;4133024;28;19937;-60
2024/02/25 09:30:44;;;;;;;;;;;;;;;21.17;33.47;99570.22;4132733;28;19945;-60
2024/02/25 09:32:46;;;;;;;;;;;;;;;21.17;33.33;99562.19;4133623;28;20025;-60
2024/02/25 09:34:47;;;;;;;;;;;;;;;21.19;33.44;99564.69;4133220;28;20343;-59
2024/02/25 09:36:50;;;;;;;;;;;;;;;21.19;33.32;99554.00;4133322;28;19926;-60
2024/02/25 09:38:52;;;;;;;;;;;;;;;21.18;33.32;99545.16;4133161;28;19925;-60
2024/02/25 09:41:00;;;;;;;;;;;;;;;21.17;33.28;99548.81;4132890;28;19973;-60
2024/02/25 09:43:06;;;;;;;;;;;;;;;21.16;33.40;99540.97;4133280;28;19929;-60
2024/02/25 09:45:16;;;;;;;;;;;;;;;21.16;33.35;99543.63;4133230;28;19977;-60
2024/02/25 09:47:19;;;;;;;;;;;;;;;21.15;33.55;99531.25;4133077;28;19925;-60
2024/02/25 09:49:25;;;;;;;;;;;;;;;21.16;33.60;99531.09;4133224;28;19926;-61
2024/02/25 09:51:27;;;;;;;;;;;;;;;21.18;33.44;99534.47;4132949;28;19940;-60
2024/02/25 09:53:30;;;;;;;;;;;;;;;21.19;33.45;99530.78;4115946;28;20483;-59
2024/02/25 09:55:32;;;;;;;;;;;;;;;21.19;33.59;99525.44;4132504;28;20130;-60
2024/02/25 09:57:33;;;;;;;;;;;;;;;21.20;33.22;99529.81;4133031;28;20398;-59
2024/02/25 09:59:35;;;;;;;;;;;;;;;21.21;33.54;99522.63;4132830;28;20374;-59
2024/02/25 10:01:36;;;;;;;;;;;;;;;21.22;33.44;99522.44;4133129;28;19980;-59
2024/02/25 10:03:39;;;;;;;;;;;;;;;21.21;33.27;99518.09;4132704;28;19980;-59
2024/02/25 10:05:40;;;;;;;;;;;;;;;21.21;33.52;99512.75;4133162;28;19925;-60
2024/02/25 10:07:42;;;;;;;;;;;;;;;21.21;33.51;99502.06;4132891;28;19933;-60
2024/02/25 10:09:47;;;;;;;;;;;;;;;21.22;33.34;99505.59;4132309;28;19926;-60
2024/02/25 10:11:49;;;;;;;;;;;;;;;21.20;33.43;99494.19;4132721;28;19925;-60
2024/02/25 10:13:50;;;;;;;;;;;;;;;21.20;33.27;99497.72;4132599;28;20450;-60
2024/02/25 10:16:01;;;;;;;;;;;;;;;21.21;33.54;99493.19;4132843;28;20454;-60
2024/02/25 10:18:03;;;;;;;;;;;;;;;21.21;33.30;99483.34;4132491;28;19974;-59
2024/02/25 10:20:09;;;;;;;;;;;;;;;21.23;33.57;99483.22;4132632;28;19949;-60
2024/02/25 10:22:13;;;;;;;;;;;;;;;21.25;33.48;99483.88;4132630;28;20431;-60
2024/02/25 10:24:26;;;;;;;;;;;;;;;21.25;33.54;99475.84;4132205;28;19930;-58
2024/02/25 10:26:28;;;;;;;;;;;;;;;21.26;33.21;99484.72;4132601;28;19965;-60
2024/02/25 10:28:29;;;;;;;;;;;;;;;21.26;33.53;99474.03;4132432;28;19980;-60
2024/02/25 10:30:31;;;;;;;;;;;;;;;21.26;33.42;99471.34;4132706;28;19925;-60
2024/02/25 10:32:38;;;;;;;;;;;;;;;21.26;33.46;99474.84;4132544;28;19930;-60
2024/02/25 10:34:40;;;;;;;;;;;;;;;21.26;33.37;99458.81;4132420;28;19926;-59
2024/02/25 10:36:43;;;;;;;;;;;;;;;21.27;33.23;99459.66;4132477;28;19929;-60